Time;durP1;ratioP1;P1;durP2;ratioP2;P2;SDS_P1;SDS_P2;PMS_P1;PMS_P2;Temp;Humidity;BMP_temperature;BMP_pressure;BME280_temperature;BME280_humidity;BME280_pressure;Samples;Min_cycle;Max_cycle;Signal;HPM_P1;HPM_P2
2022/07/22 00:00:31;;;;;;;;;;;;;;;17.92;92.38;101063.98;108207;1276;60437;-88
2022/07/22 00:02:58;;;;;;;;;;;;;;;17.90;92.38;101065.89;108176;1276;77694;-87
2022/07/22 00:05:25;;;;;;;;;;;;;;;17.87;92.34;101062.08;108021;1276;71218;-87
2022/07/22 00:07:52;;;;;;;;;;;;;;;17.82;92.65;101062.34;108138;1276;74428;-87
2022/07/22 00:10:19;;;;;;;;;;;;;;;17.78;93.07;101063.98;108188;1276;63255;-87
2022/07/22 00:12:46;;;;;;;;;;;;;;;17.73;93.26;101062.31;108020;1277;61333;-87
2022/07/22 00:15:13;;;;;;;;;;;;;;;17.69;93.61;101061.71;108092;1276;75939;-87
2022/07/22 00:17:40;;;;;;;;;;;;;;;17.65;93.59;101058.80;108164;1276;71557;-87
2022/07/22 00:20:08;;;;;;;;;;;;;;;17.61;93.48;101061.33;108004;1276;74235;-87
2022/07/22 00:22:35;;;;;;;;;;;;;;;17.57;93.83;101062.71;108021;1276;63417;-87
2022/07/22 00:25:01;;;;;;;;;;;;;;;17.51;94.47;101056.78;108025;1276;60329;-87
2022/07/22 00:27:28;;;;;;;;;;;;;;;17.48;94.41;101056.88;108067;1277;75290;-87
2022/07/22 00:29:55;;;;;;;;;;;;;;;17.44;94.64;101056.02;108142;1276;71859;-87
2022/07/22 00:32:24;;;;;;;;;;;;;;;17.40;95.10;101053.48;108144;1276;73600;-87
2022/07/22 00:34:51;;;;;;;;;;;;;;;17.37;95.45;101050.14;108206;1276;62938;-87
2022/07/22 00:37:18;;;;;;;;;;;;;;;17.32;95.55;101053.30;108009;1276;60877;-87
2022/07/22 00:39:47;;;;;;;;;;;;;;;17.31;96.20;101052.77;108096;1277;75383;-88
2022/07/22 00:42:15;;;;;;;;;;;;;;;17.30;96.29;101053.48;107833;1276;71411;-88
2022/07/22 00:44:45;;;;;;;;;;;;;;;17.28;96.13;101048.90;108085;1277;73110;-87
2022/07/22 00:47:12;;;;;;;;;;;;;;;17.27;96.51;101052.36;108008;1277;63445;-87
2022/07/22 00:50:02;;;;;;;;;;;;;;;17.29;96.98;101050.92;108109;1277;60675;-87
2022/07/22 00:52:31;;;;;;;;;;;;;;;17.31;96.94;101048.52;108140;1276;76836;-88
2022/07/22 00:54:58;;;;;;;;;;;;;;;17.34;97.08;101046.98;108218;1276;71909;-88
2022/07/22 00:57:25;;;;;;;;;;;;;;;17.38;96.83;101045.98;108062;1276;73258;-87
2022/07/22 00:59:53;;;;;;;;;;;;;;;17.40;96.55;101046.59;108120;1277;61984;-87
2022/07/22 01:02:20;;;;;;;;;;;;;;;17.41;96.68;101046.22;108216;1276;62155;-87
2022/07/22 01:04:47;;;;;;;;;;;;;;;17.42;96.72;101043.73;108007;1276;75740;-87
2022/07/22 01:07:14;;;;;;;;;;;;;;;17.43;96.88;101048.59;108198;1276;71199;-87
2022/07/22 01:09:45;;;;;;;;;;;;;;;17.46;96.87;101048.23;108028;1277;73002;-87
2022/07/22 01:12:12;;;;;;;;;;;;;;;17.49;96.95;101048.88;108142;1276;61841;-88
2022/07/22 01:14:39;;;;;;;;;;;;;;;17.52;96.88;101047.95;108200;1276;62107;-88
2022/07/22 01:17:06;;;;;;;;;;;;;;;17.56;96.79;101049.23;108024;1277;74600;-88
2022/07/22 01:19:35;;;;;;;;;;;;;;;17.59;96.71;101052.06;106996;1277;1356444;-87
2022/07/22 01:22:02;;;;;;;;;;;;;;;17.63;96.69;101051.63;107812;1280;74545;-87
2022/07/22 01:24:29;;;;;;;;;;;;;;;17.66;96.59;101050.04;108078;1277;63237;-87
2022/07/22 01:26:56;;;;;;;;;;;;;;;17.71;96.44;101051.63;108157;1276;61562;-88
2022/07/22 01:29:23;;;;;;;;;;;;;;;17.74;96.31;101053.52;107935;1278;77475;-88
2022/07/22 01:31:50;;;;;;;;;;;;;;;17.78;96.49;101054.70;108197;1276;72583;-88
2022/07/22 01:34:18;;;;;;;;;;;;;;;17.81;96.24;101053.08;107897;1278;74848;-88
2022/07/22 01:36:45;;;;;;;;;;;;;;;17.83;95.89;101056.48;108153;1276;62315;-88
2022/07/22 01:39:13;;;;;;;;;;;;;;;17.86;95.78;101054.14;108187;1276;60320;-88
2022/07/22 01:41:40;;;;;;;;;;;;;;;17.88;95.68;101055.99;108144;1276;75292;-88
2022/07/22 01:44:07;;;;;;;;;;;;;;;17.91;95.53;101055.45;107963;1277;72266;-88
2022/07/22 01:46:34;;;;;;;;;;;;;;;17.92;95.42;101057.41;107939;1276;73799;-88
2022/07/22 01:49:01;;;;;;;;;;;;;;;17.92;96.41;101064.52;107990;1277;61169;-88
2022/07/22 01:51:28;;;;;;;;;;;;;;;17.87;97.20;101061.17;108179;1277;61306;-87
2022/07/22 01:53:55;;;;;;;;;;;;;;;17.81;98.16;101064.80;108008;1277;75768;-88
2022/07/22 01:56:22;;;;;;;;;;;;;;;17.74;98.82;101063.13;108024;1277;71028;-88
2022/07/22 01:58:49;;;;;;;;;;;;;;;17.66;99.51;101062.23;108028;1274;71612;-88
2022/07/22 02:01:19;;;;;;;;;;;;;;;17.58;99.91;101062.29;108093;1277;63459;-88
2022/07/22 02:03:46;;;;;;;;;;;;;;;17.50;100.00;101066.73;108081;1277;60254;-88
2022/07/22 02:06:13;;;;;;;;;;;;;;;17.43;100.00;101067.46;108168;1276;74592;-88
2022/07/22 02:08:40;;;;;;;;;;;;;;;17.35;100.00;101070.04;107935;1277;72684;-87
2022/07/22 02:11:07;;;;;;;;;;;;;;;17.28;100.00;101069.81;108071;1276;73196;-88
2022/07/22 02:13:34;;;;;;;;;;;;;;;17.23;100.00;101069.65;107842;1277;63507;-87
2022/07/22 02:16:02;;;;;;;;;;;;;;;17.18;100.00;101073.05;107931;1277;60191;-87
2022/07/22 02:18:31;;;;;;;;;;;;;;;17.14;100.00;101070.50;108123;1277;75832;-86
2022/07/22 02:20:58;;;;;;;;;;;;;;;17.10;100.00;101066.49;108033;1277;72907;-87
2022/07/22 02:23:25;;;;;;;;;;;;;;;17.07;100.00;101069.93;108143;1277;74048;-87
2022/07/22 02:25:54;;;;;;;;;;;;;;;17.05;100.00;101068.83;107925;1278;62275;-90
2022/07/22 02:31:06;;;;;;;;;;;;;;;16.98;100.00;101085.44;107793;1266;169905;-87
2022/07/22 02:33:36;;;;;;;;;;;;;;;16.91;100.00;101084.64;107670;1281;71473;-87
2022/07/22 02:36:05;;;;;;;;;;;;;;;16.86;100.00;101085.41;107879;1279;73273;-87
2022/07/22 02:38:33;;;;;;;;;;;;;;;16.79;100.00;101093.48;108046;1279;63177;-88
2022/07/22 02:41:01;;;;;;;;;;;;;;;16.73;100.00;101088.48;108029;1278;59972;-88
2022/07/22 02:43:28;;;;;;;;;;;;;;;16.66;100.00;101105.09;107887;1280;75830;-85
2022/07/22 02:45:54;;;;;;;;;;;;;;;16.62;100.00;101101.05;107585;1281;60038;-87
2022/07/22 02:48:21;;;;;;;;;;;;;;;16.59;100.00;101103.98;107873;1279;73371;-85
2022/07/22 02:50:48;;;;;;;;;;;;;;;16.55;100.00;101106.67;107716;1281;62359;-86
2022/07/22 02:53:15;;;;;;;;;;;;;;;16.50;100.00;101109.52;107919;1277;60764;-86
2022/07/22 02:55:42;;;;;;;;;;;;;;;16.45;100.00;101106.14;107667;1281;76572;-86
2022/07/22 02:58:09;;;;;;;;;;;;;;;16.40;100.00;101106.79;107944;1279;72665;-87
2022/07/22 03:00:39;;;;;;;;;;;;;;;16.36;100.00;101109.45;107740;1278;72993;-87
2022/07/22 03:03:07;;;;;;;;;;;;;;;16.30;100.00;101114.84;107963;1278;63259;-87
2022/07/22 03:05:34;;;;;;;;;;;;;;;16.24;100.00;101115.06;107763;1278;60645;-86
2022/07/22 03:08:00;;;;;;;;;;;;;;;16.19;100.00;101114.02;107924;1279;76057;-87
2022/07/22 03:10:27;;;;;;;;;;;;;;;16.15;100.00;101122.66;107823;1280;71330;-87
2022/07/22 03:12:54;;;;;;;;;;;;;;;16.10;100.00;101122.83;107886;1281;73077;-86
2022/07/22 03:15:21;;;;;;;;;;;;;;;16.06;100.00;101130.98;107758;1278;62255;-87
2022/07/22 03:17:48;;;;;;;;;;;;;;;16.03;100.00;101132.75;107983;1278;61690;-87
2022/07/22 03:20:15;;;;;;;;;;;;;;;16.00;100.00;101135.46;107962;1278;75915;-87
2022/07/22 03:22:42;;;;;;;;;;;;;;;15.98;100.00;101130.30;107852;1278;69192;-86
2022/07/22 03:25:09;;;;;;;;;;;;;;;15.97;100.00;101132.84;107935;1277;74033;-87
2022/07/22 03:27:37;;;;;;;;;;;;;;;15.96;100.00;101133.00;107897;1279;63596;-87
2022/07/22 03:30:04;;;;;;;;;;;;;;;15.94;100.00;101132.26;107939;1277;60121;-87
2022/07/22 03:32:31;;;;;;;;;;;;;;;15.94;100.00;101131.94;107935;1277;76979;-87
2022/07/22 03:34:58;;;;;;;;;;;;;;;15.93;100.00;101131.14;107669;1279;70243;-88
2022/07/22 03:37:30;;;;;;;;;;;;;;;15.92;100.00;101132.53;107728;1278;73026;-87
2022/07/22 03:39:57;;;;;;;;;;;;;;;15.88;100.00;101134.41;107899;1277;62444;-88
2022/07/22 03:42:24;;;;;;;;;;;;;;;15.87;100.00;101137.95;107896;1277;60037;-87
2022/07/22 03:44:51;;;;;;;;;;;;;;;15.84;100.00;101139.59;107882;1277;76565;-87
2022/07/22 03:47:19;;;;;;;;;;;;;;;15.82;100.00;101140.98;107926;1279;71626;-87
2022/07/22 03:49:47;;;;;;;;;;;;;;;15.80;100.00;101138.58;107960;1277;74109;-87
2022/07/22 03:52:14;;;;;;;;;;;;;;;15.79;100.00;101140.46;108009;1278;63468;-87
2022/07/22 03:54:41;;;;;;;;;;;;;;;15.78;100.00;101141.48;108009;1277;60926;-86
2022/07/22 03:57:08;;;;;;;;;;;;;;;15.77;100.00;101146.09;107753;1281;75982;-88
2022/07/22 03:59:35;;;;;;;;;;;;;;;15.77;100.00;101142.89;108007;1277;71104;-88
2022/07/22 04:02:02;;;;;;;;;;;;;;;15.77;100.00;101147.16;107792;1278;75170;-87
2022/07/22 04:04:29;;;;;;;;;;;;;;;15.79;100.00;101147.50;107767;1277;61705;-88
2022/07/22 04:06:58;;;;;;;;;;;;;;;15.81;100.00;101145.00;107637;1280;60551;-87
2022/07/22 04:09:25;;;;;;;;;;;;;;;15.83;100.00;101146.21;107691;1281;77863;-88
2022/07/22 04:11:53;;;;;;;;;;;;;;;15.84;100.00;101147.61;107821;1277;72687;-87
2022/07/22 04:14:20;;;;;;;;;;;;;;;15.85;100.00;101147.91;107989;1277;73482;-87
2022/07/22 04:16:47;;;;;;;;;;;;;;;15.84;100.00;101153.84;107947;1277;63585;-87
2022/07/22 04:19:15;;;;;;;;;;;;;;;15.84;100.00;101156.87;107927;1279;60180;-87
2022/07/22 04:21:42;;;;;;;;;;;;;;;15.84;100.00;101153.55;107742;1279;76935;-87
2022/07/22 04:24:09;;;;;;;;;;;;;;;15.82;100.00;101157.15;107838;1278;73065;-87
2022/07/22 04:26:36;;;;;;;;;;;;;;;15.80;100.00;101164.87;107867;1277;72931;-87
2022/07/22 04:29:03;;;;;;;;;;;;;;;15.79;100.00;101164.14;107700;1280;62309;-88
2022/07/22 04:31:30;;;;;;;;;;;;;;;15.79;100.00;101162.44;108121;1277;60654;-87
2022/07/22 04:33:57;;;;;;;;;;;;;;;15.79;100.00;101172.40;107845;1278;75649;-87
2022/07/22 04:36:25;;;;;;;;;;;;;;;15.79;100.00;101169.23;107936;1278;71474;-87
2022/07/22 04:38:52;;;;;;;;;;;;;;;15.80;100.00;101168.54;107863;1278;74224;-88
2022/07/22 04:41:20;;;;;;;;;;;;;;;15.81;100.00;101158.58;108056;1277;63212;-87
2022/07/22 04:43:47;;;;;;;;;;;;;;;15.82;100.00;101166.77;107982;1279;60759;-87
2022/07/22 04:46:14;;;;;;;;;;;;;;;15.83;100.00;101168.34;107809;1279;76923;-88
2022/07/22 04:48:42;;;;;;;;;;;;;;;15.84;100.00;101166.74;107870;1279;71452;-87
2022/07/22 04:51:11;;;;;;;;;;;;;;;15.85;100.00;101164.98;107840;1279;73610;-88
2022/07/22 04:53:38;;;;;;;;;;;;;;;15.86;100.00;101166.31;107792;1279;62295;-85
2022/07/22 04:56:10;;;;;;;;;;;;;;;15.87;100.00;101169.73;107806;1278;60635;-84
2022/07/22 04:58:38;;;;;;;;;;;;;;;15.88;100.00;101167.74;107857;1279;76920;-84
2022/07/22 05:01:05;;;;;;;;;;;;;;;15.91;100.00;101173.52;107993;1277;70718;-85
2022/07/22 05:03:32;;;;;;;;;;;;;;;15.93;100.00;101177.17;107879;1277;72678;-85
2022/07/22 05:05:59;;;;;;;;;;;;;;;15.94;100.00;101180.42;107489;1280;63306;-84
2022/07/22 05:08:26;;;;;;;;;;;;;;;15.97;100.00;101184.35;107966;1279;61622;-84
2022/07/22 05:10:53;;;;;;;;;;;;;;;15.97;100.00;101189.32;107844;1277;77544;-84
2022/07/22 05:13:20;;;;;;;;;;;;;;;15.96;100.00;101194.88;107902;1278;72633;-85
2022/07/22 05:15:46;;;;;;;;;;;;;;;15.93;100.00;101199.09;107973;1277;71763;-85
2022/07/22 05:18:14;;;;;;;;;;;;;;;15.90;100.00;101198.02;107745;1279;61962;-85
2022/07/22 05:20:41;;;;;;;;;;;;;;;15.87;100.00;101199.17;107805;1279;60099;-85
2022/07/22 05:23:08;;;;;;;;;;;;;;;15.85;100.00;101194.59;108070;1277;76458;-84
2022/07/22 05:25:35;;;;;;;;;;;;;;;15.85;100.00;101200.31;107887;1277;72443;-85
2022/07/22 05:28:01;;;;;;;;;;;;;;;15.83;100.00;101205.52;107932;1279;72086;-85
2022/07/22 05:30:29;;;;;;;;;;;;;;;15.83;100.00;101201.12;107731;1278;61933;-85
2022/07/22 05:32:56;;;;;;;;;;;;;;;15.82;99.91;101205.48;107833;1277;61143;-85
2022/07/22 05:35:23;;;;;;;;;;;;;;;15.82;99.31;101207.27;107792;1278;77104;-84
2022/07/22 05:37:50;;;;;;;;;;;;;;;15.81;99.13;101200.77;107720;1277;72288;-85
2022/07/22 05:40:17;;;;;;;;;;;;;;;15.85;99.40;101205.07;107940;1278;72911;-85
2022/07/22 05:42:44;;;;;;;;;;;;;;;15.87;98.96;101212.17;107957;1277;62269;-85
2022/07/22 05:45:11;;;;;;;;;;;;;;;15.87;98.32;101214.23;107977;1277;61321;-85
2022/07/22 05:47:38;;;;;;;;;;;;;;;15.88;97.79;101214.10;107774;1278;76345;-84
2022/07/22 05:50:04;;;;;;;;;;;;;;;15.91;97.84;101212.55;107786;1277;70830;-85
2022/07/22 05:52:31;;;;;;;;;;;;;;;15.92;97.56;101220.10;107913;1279;73567;-85
2022/07/22 05:55:01;;;;;;;;;;;;;;;15.95;97.51;101219.80;107857;1279;63750;-86
2022/07/22 05:57:28;;;;;;;;;;;;;;;15.99;97.36;101218.39;107967;1277;60138;-85
2022/07/22 05:59:54;;;;;;;;;;;;;;;16.02;97.05;101224.92;107867;1278;76766;-84
2022/07/22 06:02:22;;;;;;;;;;;;;;;16.04;96.96;101223.54;107669;1279;72499;-84
2022/07/22 06:04:49;;;;;;;;;;;;;;;16.08;96.83;101226.52;107661;1278;73556;-84
2022/07/22 06:07:17;;;;;;;;;;;;;;;16.14;96.75;101223.55;107750;1277;62920;-84
2022/07/22 06:09:43;;;;;;;;;;;;;;;16.21;96.45;101224.77;107867;1279;60943;-84
2022/07/22 06:12:11;;;;;;;;;;;;;;;16.27;96.09;101218.77;107757;1279;77685;-84
2022/07/22 06:14:38;;;;;;;;;;;;;;;16.33;94.51;101221.56;107889;1277;71659;-84
2022/07/22 06:17:05;;;;;;;;;;;;;;;16.39;93.42;101223.85;107721;1278;73212;-84
2022/07/22 06:19:32;;;;;;;;;;;;;;;16.43;92.79;101222.77;107907;1277;62987;-85
2022/07/22 06:21:59;;;;;;;;;;;;;;;16.47;91.95;101218.53;108096;1277;59929;-84
2022/07/22 06:24:26;;;;;;;;;;;;;;;16.49;91.06;101219.81;108191;1277;77046;-84
2022/07/22 06:26:52;;;;;;;;;;;;;;;16.52;90.53;101216.44;108185;1277;71310;-83
2022/07/22 06:29:19;;;;;;;;;;;;;;;16.52;90.65;101221.30;108014;1277;72986;-83
2022/07/22 06:31:46;;;;;;;;;;;;;;;16.50;90.83;101220.97;107985;1277;63088;-84
2022/07/22 06:34:13;;;;;;;;;;;;;;;16.53;90.79;101224.93;107907;1278;60625;-84
2022/07/22 06:36:40;;;;;;;;;;;;;;;16.53;90.33;101223.45;107994;1277;77542;-84
2022/07/22 06:39:07;;;;;;;;;;;;;;;16.59;90.92;101225.37;107650;1279;70863;-84
2022/07/22 06:41:34;;;;;;;;;;;;;;;16.62;90.89;101223.69;108173;1277;73593;-84
2022/07/22 06:44:02;;;;;;;;;;;;;;;16.67;91.32;101227.45;108141;1277;62937;-84
2022/07/22 06:46:28;;;;;;;;;;;;;;;16.70;91.48;101227.79;107986;1279;61383;-84
2022/07/22 06:48:55;;;;;;;;;;;;;;;16.72;90.61;101227.09;107989;1277;76722;-84
2022/07/22 06:51:24;;;;;;;;;;;;;;;16.73;90.22;101233.61;107729;1279;71386;-84
2022/07/22 06:53:53;;;;;;;;;;;;;;;16.72;89.66;101230.42;108201;1277;73144;-84
2022/07/22 06:56:19;;;;;;;;;;;;;;;16.74;89.66;101229.86;108156;1277;61969;-84
2022/07/22 06:58:46;;;;;;;;;;;;;;;16.76;89.46;101228.25;108030;1279;60129;-84
2022/07/22 07:01:13;;;;;;;;;;;;;;;16.81;89.45;101225.52;107994;1278;75849;-84
2022/07/22 07:03:39;;;;;;;;;;;;;;;16.86;89.60;101230.61;108165;1277;70974;-84
2022/07/22 07:06:07;;;;;;;;;;;;;;;16.92;89.55;101230.34;108052;1279;71523;-84
2022/07/22 07:08:34;;;;;;;;;;;;;;;16.94;88.60;101231.52;108031;1277;62274;-84
2022/07/22 07:11:01;;;;;;;;;;;;;;;16.95;88.56;101233.27;107826;1277;60707;-84
2022/07/22 07:13:30;;;;;;;;;;;;;;;17.02;88.81;101233.67;108199;1277;76638;-83
2022/07/22 07:15:57;;;;;;;;;;;;;;;17.05;88.22;101234.60;108020;1277;71359;-84
2022/07/22 07:18:24;;;;;;;;;;;;;;;17.08;88.15;101235.49;108000;1278;73373;-83
2022/07/22 07:20:51;;;;;;;;;;;;;;;17.13;88.16;101234.69;107970;1277;62233;-83
2022/07/22 07:23:17;;;;;;;;;;;;;;;17.18;87.96;101234.20;108144;1277;60208;-84
2022/07/22 07:25:44;;;;;;;;;;;;;;;17.26;87.45;101236.76;108158;1277;60322;-83
2022/07/22 07:28:11;;;;;;;;;;;;;;;17.32;86.89;101236.47;107999;1277;73721;-84
2022/07/22 07:30:38;;;;;;;;;;;;;;;17.40;86.00;101237.50;107974;1277;72895;-84
2022/07/22 07:33:04;;;;;;;;;;;;;;;17.53;85.06;101239.18;108193;1277;63518;-84
2022/07/22 07:35:32;;;;;;;;;;;;;;;17.63;83.48;101237.64;107951;1279;60602;-84
2022/07/22 07:37:58;;;;;;;;;;;;;;;17.79;83.61;101238.70;107990;1277;75630;-84
2022/07/22 07:40:25;;;;;;;;;;;;;;;17.99;83.64;101240.25;108056;1277;71217;-84
2022/07/22 07:42:52;;;;;;;;;;;;;;;18.15;81.92;101242.48;108179;1277;72943;-83
2022/07/22 07:45:28;;;;;;;;;;;;;;;18.23;80.81;101242.65;107904;1279;62184;-83
2022/07/22 07:47:56;;;;;;;;;;;;;;;18.26;80.27;101241.20;107990;1277;62033;-83
2022/07/22 07:50:23;;;;;;;;;;;;;;;18.23;79.71;101238.23;107991;1279;77054;-83
2022/07/22 07:52:49;;;;;;;;;;;;;;;18.18;80.12;101239.90;108226;1277;71682;-84
2022/07/22 07:55:19;;;;;;;;;;;;;;;18.05;80.62;101239.41;107862;1277;73806;-83
2022/07/22 07:57:48;;;;;;;;;;;;;;;17.87;80.99;101239.73;107964;1277;63231;-83
2022/07/22 08:00:18;;;;;;;;;;;;;;;17.78;81.57;101238.58;108214;1277;60076;-83
2022/07/22 08:02:45;;;;;;;;;;;;;;;17.76;81.92;101239.58;108010;1276;75241;-83
2022/07/22 08:05:12;;;;;;;;;;;;;;;17.78;82.33;101237.76;108019;1279;71489;-84
2022/07/22 08:07:39;;;;;;;;;;;;;;;17.82;82.72;101235.60;107979;1277;74737;-84
2022/07/22 08:10:06;;;;;;;;;;;;;;;17.94;82.57;101238.48;108209;1277;62732;-84
2022/07/22 08:12:55;;;;;;;;;;;;;;;18.08;81.97;101241.21;107949;1277;60646;-83
2022/07/22 08:15:21;;;;;;;;;;;;;;;18.15;81.29;101240.73;107891;1279;75756;-83
2022/07/22 08:17:52;;;;;;;;;;;;;;;18.25;80.60;101240.66;108214;1277;72635;-84
2022/07/22 08:20:19;;;;;;;;;;;;;;;18.43;80.36;101237.73;108075;1277;73184;-83
2022/07/22 08:22:48;;;;;;;;;;;;;;;18.54;78.80;101235.86;108198;1277;63774;-83
2022/07/22 08:25:14;;;;;;;;;;;;;;;18.67;78.27;101232.98;108276;1277;59759;-84
2022/07/22 08:27:41;;;;;;;;;;;;;;;18.81;77.19;101233.17;108106;1277;75758;-83
2022/07/22 08:30:08;;;;;;;;;;;;;;;19.03;76.65;101230.22;108475;1277;70757;-83
2022/07/22 08:32:35;;;;;;;;;;;;;;;19.26;75.46;101231.16;108185;1277;72021;-83
2022/07/22 08:35:02;;;;;;;;;;;;;;;19.46;73.75;101237.84;108118;1277;63263;-83
2022/07/22 08:37:29;;;;;;;;;;;;;;;19.62;72.40;101239.91;107727;1279;61695;-83
2022/07/22 08:39:58;;;;;;;;;;;;;;;19.68;71.62;101237.55;108164;1277;75436;-82
2022/07/22 08:42:25;;;;;;;;;;;;;;;19.66;71.65;101236.65;107838;1279;73042;-84
2022/07/22 08:44:53;;;;;;;;;;;;;;;19.58;71.85;101238.63;107960;1277;73958;-84
2022/07/22 08:47:25;;;;;;;;;;;;;;;19.49;71.79;101237.39;108092;1277;62148;-83
2022/07/22 08:50:09;;;;;;;;;;;;;;;19.40;72.37;101237.88;108063;1277;61673;-83
2022/07/22 08:52:36;;;;;;;;;;;;;;;19.36;71.98;101240.23;108184;1277;75291;-82
2022/07/22 08:55:03;;;;;;;;;;;;;;;19.32;72.49;101239.73;108066;1277;72468;-82
2022/07/22 08:57:30;;;;;;;;;;;;;;;19.28;72.58;101239.67;108024;1277;74042;-84
2022/07/22 08:59:58;;;;;;;;;;;;;;;19.20;72.33;101237.79;108156;1277;63169;-83
2022/07/22 09:02:25;;;;;;;;;;;;;;;19.11;72.61;101245.05;107940;1279;61642;-83
2022/07/22 09:05:02;;;;;;;;;;;;;;;19.01;72.52;101247.81;108179;1275;75446;-83
2022/07/22 09:07:49;;;;;;;;;;;;;;;18.81;72.98;101247.73;108060;1277;73398;-84
2022/07/22 09:10:16;;;;;;;;;;;;;;;18.70;73.20;101252.41;108128;1277;73715;-83
2022/07/22 09:12:51;;;;;;;;;;;;;;;18.61;73.95;101249.39;108017;1277;62552;-83
2022/07/22 09:15:24;;;;;;;;;;;;;;;18.60;74.44;101251.83;107969;1277;61747;-83
2022/07/22 09:17:52;;;;;;;;;;;;;;;18.61;74.21;101251.54;107897;1277;76174;-82
2022/07/22 09:20:18;;;;;;;;;;;;;;;18.58;73.96;101250.77;108153;1277;72466;-84
2022/07/22 09:22:51;;;;;;;;;;;;;;;18.57;74.20;101250.57;108166;1277;72729;-84
2022/07/22 09:25:26;;;;;;;;;;;;;;;18.60;73.96;101255.69;108012;1277;61588;-83
2022/07/22 09:27:53;;;;;;;;;;;;;;;18.65;74.08;101255.70;108063;1277;61858;-83
2022/07/22 09:30:22;;;;;;;;;;;;;;;18.76;74.03;101258.83;108134;1277;76432;-83
2022/07/22 09:32:51;;;;;;;;;;;;;;;18.86;73.61;101255.60;108164;1277;70935;-83
2022/07/22 09:35:19;;;;;;;;;;;;;;;18.94;73.19;101259.75;107980;1277;72939;-83
2022/07/22 09:37:49;;;;;;;;;;;;;;;18.99;72.94;101261.16;108012;1278;61860;-83
2022/07/22 09:40:17;;;;;;;;;;;;;;;19.03;72.30;101266.30;108150;1277;60373;-83
2022/07/22 09:43:11;;;;;;;;;;;;;;;19.12;71.62;101261.05;107845;1277;75746;-83
2022/07/22 09:45:44;;;;;;;;;;;;;;;19.28;71.19;101261.89;107948;1279;71438;-83
2022/07/22 09:48:11;;;;;;;;;;;;;;;19.40;70.40;101263.58;108142;1277;71736;-83
2022/07/22 09:50:38;;;;;;;;;;;;;;;19.46;69.69;101263.89;107859;1277;62395;-82
2022/07/22 09:53:04;;;;;;;;;;;;;;;19.51;69.63;101260.51;107999;1277;61260;-83
2022/07/22 09:55:33;;;;;;;;;;;;;;;19.47;69.80;101259.55;108187;1277;59844;-83
2022/07/22 09:58:00;;;;;;;;;;;;;;;19.44;70.43;101259.52;107995;1278;72789;-83
2022/07/22 10:00:27;;;;;;;;;;;;;;;19.46;70.57;101256.77;108168;1277;59968;-83
2022/07/22 10:02:58;;;;;;;;;;;;;;;19.44;70.21;101261.23;108106;1277;61309;-83
2022/07/22 10:05:26;;;;;;;;;;;;;;;19.39;70.27;101255.96;107977;1278;63042;-84
2022/07/22 10:07:53;;;;;;;;;;;;;;;19.36;69.99;101258.08;108044;1279;76028;-83
2022/07/22 10:10:21;;;;;;;;;;;;;;;19.36;70.36;101259.48;108203;1277;71180;-83
2022/07/22 10:12:48;;;;;;;;;;;;;;;19.44;70.46;101256.06;108153;1277;72980;-83
2022/07/22 10:15:15;;;;;;;;;;;;;;;19.56;70.80;101255.00;108045;1277;60766;-82
2022/07/22 10:17:43;;;;;;;;;;;;;;;19.63;70.11;101258.50;108191;1277;60205;-82
2022/07/22 10:20:10;;;;;;;;;;;;;;;19.70;70.04;101256.27;107869;1277;76758;-82
2022/07/22 10:22:44;;;;;;;;;;;;;;;19.74;70.03;101253.81;107838;1278;71466;-83
2022/07/22 10:25:12;;;;;;;;;;;;;;;19.82;70.18;101258.68;108103;1277;71649;-82
2022/07/22 10:27:51;;;;;;;;;;;;;;;19.80;69.10;101262.88;108179;1277;62236;-83
2022/07/22 10:30:23;;;;;;;;;;;;;;;19.76;69.55;101255.66;107994;1279;60018;-83
2022/07/22 10:33:02;;;;;;;;;;;;;;;19.84;70.03;101256.42;108034;1277;76424;-83
2022/07/22 10:35:29;;;;;;;;;;;;;;;19.84;69.39;101253.80;108220;1277;71909;-83
2022/07/22 10:37:56;;;;;;;;;;;;;;;19.83;69.77;101255.48;107981;1277;73450;-83
2022/07/22 10:40:25;;;;;;;;;;;;;;;19.75;69.12;101262.60;108145;1277;64144;-84
2022/07/22 10:45:25;;;;;;;;;;;;;;;19.58;69.66;101261.90;108203;1277;76945;-84
2022/07/22 10:47:56;;;;;;;;;;;;;;;19.46;69.83;101263.36;108138;1279;73384;-83
2022/07/22 10:50:37;;;;;;;;;;;;;;;19.42;70.06;101263.59;108140;1279;72959;-83
2022/07/22 10:53:06;;;;;;;;;;;;;;;19.33;69.87;101260.95;108081;1278;63051;-84
2022/07/22 10:55:33;;;;;;;;;;;;;;;19.36;70.19;101258.77;108036;1277;60420;-83
2022/07/22 10:57:59;;;;;;;;;;;;;;;19.45;69.54;101255.35;108147;1277;76787;-83
2022/07/22 11:00:26;;;;;;;;;;;;;;;19.53;68.57;101252.21;107697;1279;72628;-84
2022/07/22 11:02:55;;;;;;;;;;;;;;;19.62;68.39;101251.85;108125;1277;72356;-85
2022/07/22 11:05:26;;;;;;;;;;;;;;;19.68;67.77;101253.07;108109;1277;62244;-83
2022/07/22 11:07:53;;;;;;;;;;;;;;;19.68;67.63;101253.27;107889;1279;59886;-83
2022/07/22 11:10:19;;;;;;;;;;;;;;;19.68;67.18;101255.07;108158;1278;60437;-83
2022/07/22 11:12:47;;;;;;;;;;;;;;;19.73;67.25;101254.98;107973;1279;71664;-85
2022/07/22 11:15:14;;;;;;;;;;;;;;;19.76;66.93;101253.64;107949;1278;74044;-84
2022/07/22 11:17:41;;;;;;;;;;;;;;;19.77;67.02;101248.09;108145;1277;65381;-84
2022/07/22 11:20:09;;;;;;;;;;;;;;;19.80;67.19;101259.08;107939;1278;60924;-83
2022/07/22 11:22:37;;;;;;;;;;;;;;;19.82;67.42;101257.81;108045;1278;75772;-82
2022/07/22 11:25:05;;;;;;;;;;;;;;;19.78;67.48;101256.61;108151;1278;70368;-84
2022/07/22 11:27:31;;;;;;;;;;;;;;;19.65;67.78;101260.52;108072;1278;74289;-84
2022/07/22 11:29:58;;;;;;;;;;;;;;;19.55;68.35;101261.09;108092;1277;63761;-83
2022/07/22 11:32:27;;;;;;;;;;;;;;;19.46;68.78;101259.15;107864;1279;60798;-84
2022/07/22 11:34:55;;;;;;;;;;;;;;;19.43;68.99;101248.86;107970;1277;75761;-84
2022/07/22 11:37:23;;;;;;;;;;;;;;;19.48;69.47;101250.77;107969;1277;71358;-84
2022/07/22 11:39:50;;;;;;;;;;;;;;;19.53;69.30;101256.85;107790;1278;74215;-84
2022/07/22 11:42:17;;;;;;;;;;;;;;;19.49;68.81;101262.38;108196;1277;62294;-83
2022/07/22 11:44:44;;;;;;;;;;;;;;;19.47;68.82;101261.86;107844;1278;60102;-84
2022/07/22 11:47:18;;;;;;;;;;;;;;;19.49;68.55;101261.06;108207;1277;77208;-84
2022/07/22 11:49:46;;;;;;;;;;;;;;;19.49;68.51;101260.77;107935;1277;71394;-83
2022/07/22 11:52:12;;;;;;;;;;;;;;;19.59;68.52;101258.71;108152;1278;72898;-83
2022/07/22 11:54:40;;;;;;;;;;;;;;;19.64;67.58;101252.30;108111;1277;62300;-83
2022/07/22 11:57:07;;;;;;;;;;;;;;;19.69;67.41;101253.07;107682;1279;61893;-82
2022/07/22 11:59:34;;;;;;;;;;;;;;;19.76;67.26;101255.91;108143;1277;75721;-82
2022/07/22 12:02:02;;;;;;;;;;;;;;;19.87;67.06;101256.21;108132;1277;72468;-82
2022/07/22 12:04:30;;;;;;;;;;;;;;;19.96;66.05;101251.52;107969;1278;72746;-82
2022/07/22 12:06:58;;;;;;;;;;;;;;;20.02;65.70;101248.08;108007;1278;62701;-83
2022/07/22 12:09:26;;;;;;;;;;;;;;;20.03;65.27;101248.48;107937;1278;62275;-82
2022/07/22 12:11:53;;;;;;;;;;;;;;;20.10;65.46;101248.69;108164;1277;77046;-83
2022/07/22 12:14:21;;;;;;;;;;;;;;;20.12;65.02;101248.87;107935;1278;71736;-85
2022/07/22 12:17:08;;;;;;;;;;;;;;;20.13;64.82;101245.70;107941;1277;74533;-81
2022/07/22 12:19:35;;;;;;;;;;;;;;;20.23;64.79;101235.48;108063;1278;61873;-80
2022/07/22 12:22:06;;;;;;;;;;;;;;;20.33;64.61;101237.75;107883;1279;60362;-81
2022/07/22 12:24:33;;;;;;;;;;;;;;;20.37;64.54;101233.30;108003;1277;74771;-81
2022/07/22 12:27:04;;;;;;;;;;;;;;;20.42;64.81;101234.17;108058;1277;72208;-81
2022/07/22 12:29:41;;;;;;;;;;;;;;;20.45;64.58;101235.20;108027;1278;73984;-81
2022/07/22 12:32:15;;;;;;;;;;;;;;;20.43;63.99;101230.21;108104;1277;60388;-81